Time;durP1;ratioP1;P1;durP2;ratioP2;P2;SDS_P1;SDS_P2;PMS_P1;PMS_P2;Temp;Humidity;BMP_temperature;BMP_pressure;BME280_temperature;BME280_humidity;BME280_pressure;Samples;Min_cycle;Max_cycle;Signal;HPM_P1;HPM_P2
2024/03/30 00:00:14;;;;;;;6.72;6.13;;;;;;;10.60;100.00;98766.09;10328874;28;20955;-79
2024/03/30 00:05:14;;;;;;;7.65;6.70;;;;;;;10.43;100.00;98763.53;10302422;28;20073;-78
2024/03/30 00:10:15;;;;;;;7.68;6.88;;;;;;;10.22;100.00;98759.44;10306020;28;20121;-81
2024/03/30 00:15:16;;;;;;;8.18;7.10;;;;;;;10.14;100.00;98786.22;10329927;28;20052;-81
2024/03/30 00:20:17;;;;;;;9.38;7.20;;;;;;;10.10;100.00;98804.50;10318722;28;20039;-80
2024/03/30 00:25:19;;;;;;;8.85;6.93;;;;;;;10.06;100.00;98797.75;10317763;28;20102;-80
2024/03/30 00:30:19;;;;;;;7.95;6.95;;;;;;;10.01;100.00;98778.63;10323106;28;20038;-81
2024/03/30 00:35:20;;;;;;;8.43;6.88;;;;;;;9.98;100.00;98786.97;10317522;28;20038;-81
2024/03/30 00:40:21;;;;;;;8.68;7.10;;;;;;;9.99;100.00;98744.91;10297585;28;20057;-78
2024/03/30 00:45:23;;;;;;;7.93;7.15;;;;;;;10.00;100.00;98731.34;10296601;28;20050;-81
2024/03/30 00:50:23;;;;;;;8.50;7.23;;;;;;;9.90;100.00;98727.94;10288215;28;20062;-80
2024/03/30 00:55:24;;;;;;;10.27;7.72;;;;;;;9.85;100.00;98741.81;10290769;28;20716;-82
2024/03/30 01:00:27;;;;;;;9.20;7.07;;;;;;;9.79;100.00;98741.59;10282405;28;20051;-81
2024/03/30 01:05:28;;;;;;;8.35;7.47;;;;;;;9.74;100.00;98742.09;10309375;28;20636;-79
2024/03/30 01:10:29;;;;;;;9.85;8.00;;;;;;;9.71;100.00;98743.25;10298911;28;20039;-81
2024/03/30 01:15:30;;;;;;;9.27;7.40;;;;;;;9.71;100.00;98716.44;10307433;28;20150;-81
2024/03/30 01:20:31;;;;;;;9.25;7.07;;;;;;;9.72;100.00;98722.63;10317308;28;20700;-81
2024/03/30 01:25:33;;;;;;;7.80;6.65;;;;;;;9.76;100.00;98712.41;10304073;28;20053;-81
2024/03/30 01:30:34;;;;;;;7.00;6.32;;;;;;;9.82;100.00;98715.31;10314192;28;20042;-81
2024/03/30 01:35:35;;;;;;;8.15;7.05;;;;;;;9.90;100.00;98695.75;10288698;28;20231;-81
2024/03/30 01:40:38;;;;;;;9.18;8.15;;;;;;;9.85;100.00;98701.56;10318081;28;20161;-81
2024/03/30 01:45:41;;;;;;;9.05;7.63;;;;;;;9.82;100.00;98696.53;10308677;28;20167;-80
2024/03/30 01:50:44;;;;;;;12.05;8.45;;;;;;;9.84;100.00;98688.31;10294215;28;20038;-79
2024/03/30 01:55:46;;;;;;;;;;;;;;;9.71;100.00;98684.25;10294312;28;20059;-81
2024/03/30 02:00:47;;;;;;;7.70;6.33;;;;;;;9.67;100.00;98676.69;10289557;28;19944;-81
2024/03/30 02:05:48;;;;;;;7.53;6.47;;;;;;;9.62;100.00;98679.84;10278974;28;20058;-81
2024/03/30 02:10:49;;;;;;;10.53;6.73;;;;;;;9.70;100.00;98671.00;10306158;28;20069;-80
2024/03/30 02:15:50;;;;;;;9.20;7.13;;;;;;;9.67;100.00;98669.47;10332969;28;20037;-77
2024/03/30 02:20:51;;;;;;;8.23;6.75;;;;;;;9.62;100.00;98676.31;10322364;28;20541;-78
2024/03/30 02:25:56;;;;;;;7.68;6.07;;;;;;;9.67;100.00;98663.28;10313510;28;20061;-80
2024/03/30 02:30:57;;;;;;;8.55;6.22;;;;;;;9.68;100.00;98657.78;10310129;28;20043;-79
2024/03/30 02:35:58;;;;;;;6.88;6.20;;;;;;;9.59;100.00;98658.72;10295964;28;20034;-79
2024/03/30 02:40:58;;;;;;;6.88;6.00;;;;;;;9.59;100.00;98661.38;10300138;28;20057;-80
2024/03/30 02:45:59;;;;;;;8.10;6.30;;;;;;;9.58;100.00;98650.84;10314837;28;20071;-80
2024/03/30 02:51:00;;;;;;;7.78;6.57;;;;;;;9.54;100.00;98628.03;10312927;28;20102;-82
2024/03/30 02:56:01;;;;;;;13.07;7.60;;;;;;;9.48;100.00;98626.81;10300814;28;20047;-80
2024/03/30 03:01:02;;;;;;;9.10;6.93;;;;;;;9.49;100.00;98626.69;10316763;28;20102;-79
2024/03/30 03:06:03;;;;;;;8.80;7.10;;;;;;;9.44;100.00;98620.97;10321737;28;20398;-79
2024/03/30 03:11:04;;;;;;;8.68;7.78;;;;;;;9.25;100.00;98607.81;10290172;28;20056;-78
2024/03/30 03:16:05;;;;;;;9.15;7.43;;;;;;;9.41;100.00;98612.41;10300576;28;20053;-80
2024/03/30 03:21:06;;;;;;;8.38;7.32;;;;;;;9.48;100.00;98610.75;10317210;28;20058;-78
2024/03/30 03:26:06;;;;;;;8.63;7.45;;;;;;;9.43;100.00;98602.34;10302175;28;20093;-78
2024/03/30 03:31:07;;;;;;;8.40;7.15;;;;;;;9.36;100.00;98594.13;10318283;28;20125;-78
2024/03/30 03:36:08;;;;;;;9.02;7.07;;;;;;;9.35;100.00;98594.28;10310794;28;20100;-78
2024/03/30 03:41:09;;;;;;;8.73;6.30;;;;;;;9.47;100.00;98593.00;10304505;28;20047;-79
2024/03/30 03:46:10;;;;;;;8.27;6.82;;;;;;;9.45;100.00;98563.66;10297059;28;20423;-80
2024/03/30 03:51:13;;;;;;;8.82;7.00;;;;;;;9.41;100.00;98569.53;10315663;28;20089;-79
2024/03/30 03:56:13;;;;;;;8.55;6.53;;;;;;;9.40;100.00;98571.34;10306952;28;20671;-80
2024/03/30 04:01:14;;;;;;;7.80;6.60;;;;;;;9.39;100.00;98563.50;10309789;28;20118;-80
2024/03/30 04:06:15;;;;;;;6.53;5.55;;;;;;;9.39;100.00;98567.00;10311448;28;20101;-80
2024/03/30 04:11:15;;;;;;;10.88;6.95;;;;;;;9.40;100.00;98563.31;10299256;28;20046;-81
2024/03/30 04:16:16;;;;;;;8.52;6.55;;;;;;;9.35;100.00;98551.41;10279071;28;20539;-81
2024/03/30 04:21:17;;;;;;;7.50;6.70;;;;;;;9.32;100.00;98549.03;10313906;28;20554;-81
2024/03/30 04:26:19;;;;;;;9.13;6.75;;;;;;;9.17;100.00;98549.66;10298455;28;20505;-81
2024/03/30 04:31:19;;;;;;;7.75;6.85;;;;;;;9.21;100.00;98536.78;10310974;28;20046;-80
2024/03/30 04:36:20;;;;;;;7.78;6.53;;;;;;;9.25;100.00;98536.31;10318406;28;20789;-81
2024/03/30 04:41:21;;;;;;;8.40;6.10;;;;;;;9.21;100.00;98521.53;10292839;28;20047;-81
2024/03/30 04:46:21;;;;;;;7.55;5.90;;;;;;;9.25;100.00;98522.91;10312150;28;20053;-79
2024/03/30 04:51:22;;;;;;;6.63;5.95;;;;;;;9.28;100.00;98513.72;10341720;28;20080;-77
2024/03/30 04:56:24;;;;;;;6.88;5.50;;;;;;;9.31;100.00;98518.75;10304156;28;20039;-80
2024/03/30 05:01:25;;;;;;;7.47;5.53;;;;;;;9.32;100.00;98516.91;10310059;28;20065;-80
2024/03/30 05:06:26;;;;;;;8.18;6.30;;;;;;;9.33;100.00;98507.88;10294700;28;20046;-78
2024/03/30 05:11:26;;;;;;;6.60;5.50;;;;;;;9.32;100.00;98512.38;10297556;28;20038;-79
2024/03/30 05:16:27;;;;;;;6.05;5.22;;;;;;;9.28;100.00;98513.72;10306030;28;20038;-81
2024/03/30 05:21:28;;;;;;;7.15;4.75;;;;;;;9.28;100.00;98509.19;10294184;28;20067;-79
2024/03/30 05:26:28;;;;;;;6.95;4.70;;;;;;;9.23;100.00;98510.66;10305448;28;20038;-81
2024/03/30 05:31:29;;;;;;;5.15;4.65;;;;;;;9.23;100.00;98502.63;10307387;28;20562;-78
2024/03/30 05:36:30;;;;;;;5.45;4.25;;;;;;;9.24;100.00;98502.47;10297159;28;20043;-79
2024/03/30 05:41:31;;;;;;;3.42;3.10;;;;;;;9.34;100.00;98514.91;10300686;28;20058;-79
2024/03/30 05:46:32;;;;;;;3.42;3.13;;;;;;;9.37;100.00;98498.50;10295083;28;20042;-81
2024/03/30 05:51:32;;;;;;;3.15;2.72;;;;;;;9.38;100.00;98497.47;10300833;28;20555;-80
2024/03/30 05:56:33;;;;;;;3.03;2.72;;;;;;;9.60;100.00;98482.63;10311582;28;20042;-79
2024/03/30 06:01:34;;;;;;;2.05;1.90;;;;;;;9.62;100.00;98477.94;10322589;28;20046;-79
2024/03/30 06:06:35;;;;;;;2.97;2.03;;;;;;;9.81;100.00;98482.19;10303882;28;20572;-78
2024/03/30 06:11:36;;;;;;;2.63;1.92;;;;;;;10.13;100.00;98481.41;10305457;28;20047;-78
2024/03/30 06:16:38;;;;;;;4.40;1.83;;;;;;;10.37;98.23;98481.38;10317465;28;20405;-79
2024/03/30 06:21:39;;;;;;;2.42;1.52;;;;;;;10.29;96.03;98478.72;10327522;28;20046;-80
2024/03/30 06:26:40;;;;;;;2.45;1.40;;;;;;;10.54;94.74;98473.31;10326031;28;20059;-81
2024/03/30 06:31:41;;;;;;;3.53;1.67;;;;;;;10.70;93.43;98464.41;10314701;28;20493;-79
2024/03/30 06:36:42;;;;;;;2.95;1.30;;;;;;;10.60;92.10;98465.41;10308885;28;20057;-81
2024/03/30 06:47:02;;;;;;;3.25;1.30;;;;;;;11.21;89.65;98452.28;10325634;28;20051;-81
2024/03/30 06:52:03;;;;;;;2.63;1.30;;;;;;;11.24;87.93;98460.03;10306875;28;20144;-81
2024/03/30 06:57:04;;;;;;;1.60;1.30;;;;;;;11.38;86.72;98455.75;10329795;28;20042;-80
2024/03/30 07:02:05;;;;;;;4.15;1.50;;;;;;;11.46;86.36;98450.34;10302323;28;20540;-81
2024/03/30 07:07:06;;;;;;;4.40;1.02;;;;;;;11.53;86.48;98458.50;10318307;28;20532;-81
2024/03/30 07:12:07;;;;;;;2.92;0.90;;;;;;;11.81;84.75;98460.69;10306688;28;20141;-82
2024/03/30 07:17:08;;;;;;;4.30;1.23;;;;;;;12.38;81.61;98465.63;10332013;28;20039;-81
2024/03/30 07:22:09;;;;;;;3.95;1.83;;;;;;;12.47;80.47;98469.06;10307357;28;20050;-79
2024/03/30 07:27:10;;;;;;;2.70;1.40;;;;;;;12.65;79.42;98461.50;10331484;28;20042;-80
2024/03/30 07:32:11;;;;;;;7.53;1.20;;;;;;;12.70;78.06;98467.16;10336307;28;20054;-79
2024/03/30 07:37:12;;;;;;;4.65;1.20;;;;;;;12.29;79.63;98464.88;10333622;28;20063;-78
2024/03/30 07:42:13;;;;;;;3.35;1.23;;;;;;;12.64;79.17;98462.50;10336098;28;20070;-78
2024/03/30 07:47:13;;;;;;;5.35;1.27;;;;;;;12.90;78.62;98469.31;10338192;28;20077;-80
2024/03/30 07:52:14;;;;;;;3.63;1.40;;;;;;;13.10;77.59;98483.88;10318621;28;20062;-80
2024/03/30 07:57:15;;;;;;;5.15;2.30;;;;;;;13.18;76.49;98483.78;10313058;28;20122;-80
2024/03/30 08:02:16;;;;;;;5.43;1.42;;;;;;;13.04;76.67;98477.38;10321831;28;20062;-79
2024/03/30 08:07:17;;;;;;;5.47;2.58;;;;;;;13.08;76.92;98485.91;10312869;28;20039;-79
2024/03/30 08:12:18;;;;;;;4.43;1.67;;;;;;;13.35;76.78;98476.31;10316716;28;20034;-80
2024/03/30 08:17:19;;;;;;;5.65;2.35;;;;;;;13.16;76.49;98479.59;10295851;28;20050;-80
2024/03/30 08:22:19;;;;;;;6.88;1.58;;;;;;;13.35;75.58;98473.63;10316659;28;20049;-79
2024/03/30 08:27:20;;;;;;;4.80;1.40;;;;;;;14.02;72.37;98475.25;10327027;28;20038;-81
2024/03/30 08:32:21;;;;;;;5.70;2.10;;;;;;;14.35;70.65;98482.81;10291314;28;20148;-80
2024/03/30 08:37:23;;;;;;;8.77;1.48;;;;;;;14.27;71.64;98475.66;10325764;28;20042;-76
2024/03/30 08:42:23;;;;;;;9.35;1.13;;;;;;;13.93;72.13;98488.03;10274595;28;20085;-76
2024/03/30 08:47:24;;;;;;;13.55;1.40;;;;;;;13.98;73.20;98490.13;10302026;28;20070;-80
2024/03/30 08:52:25;;;;;;;6.68;2.20;;;;;;;13.82;74.15;98493.94;10307207;28;20108;-79
2024/03/30 08:57:25;;;;;;;8.63;1.55;;;;;;;13.94;75.00;98496.97;10321131;28;20103;-78
2024/03/30 09:02:31;;;;;;;12.38;1.52;;;;;;;13.93;73.82;98498.81;10307803;28;20042;-79
2024/03/30 09:07:32;;;;;;;6.88;1.80;;;;;;;13.62;73.42;98507.19;10301562;28;20042;-81
2024/03/30 09:12:33;;;;;;;6.50;1.42;;;;;;;13.71;72.95;98535.75;10293747;28;20026;-79
2024/03/30 09:17:34;;;;;;;12.48;2.80;;;;;;;13.92;73.48;98528.69;10285501;28;20050;-79
2024/03/30 09:22:34;;;;;;;8.00;1.65;;;;;;;13.79;73.29;98521.28;10316235;28;20069;-80
2024/03/30 09:27:35;;;;;;;10.55;1.75;;;;;;;13.74;74.11;98526.44;10310158;28;20552;-81
2024/03/30 09:32:44;;;;;;;7.25;2.40;;;;;;;13.47;76.60;98536.88;10317232;28;20057;-80
2024/03/30 09:37:44;;;;;;;13.40;2.50;;;;;;;13.61;76.58;98518.19;10295371;28;20057;-81
2024/03/30 09:42:47;;;;;;;17.58;1.95;;;;;;;13.57;75.62;98514.16;10314619;28;20034;-81
2024/03/30 09:47:50;;;;;;;6.15;1.50;;;;;;;13.64;74.60;98520.50;10297331;28;20042;-81
2024/03/30 09:52:51;;;;;;;7.93;1.60;;;;;;;13.81;74.13;98523.78;10307765;28;20043;-81
2024/03/30 09:57:52;;;;;;;10.63;2.20;;;;;;;13.81;74.79;98516.53;10299735;28;20046;-79
2024/03/30 10:02:53;;;;;;;10.70;1.90;;;;;;;14.00;74.02;98527.75;10303430;28;20382;-78
2024/03/30 10:08:00;;;;;;;9.20;2.00;;;;;;;14.21;72.69;98518.81;10318818;28;20046;-79
2024/03/30 10:13:04;;;;;;;7.82;1.77;;;;;;;14.31;70.77;98522.00;10311894;28;20051;-78
2024/03/30 10:18:05;;;;;;;12.38;2.25;;;;;;;14.48;70.41;98526.16;10304621;28;20494;-79
2024/03/30 10:23:07;;;;;;;10.48;1.98;;;;;;;14.63;69.56;98520.66;10295227;28;20038;-80
2024/03/30 10:28:08;;;;;;;9.57;2.25;;;;;;;14.99;67.45;98515.09;10322474;28;20043;-80
2024/03/30 10:33:12;;;;;;;9.00;1.90;;;;;;;15.60;65.78;98500.88;10320992;28;20054;-79
2024/03/30 10:38:13;;;;;;;9.90;2.20;;;;;;;16.14;62.14;98502.66;10322174;28;20082;-82
2024/03/30 10:43:14;;;;;;;18.25;2.72;;;;;;;16.14;61.62;98502.66;10316730;28;20811;-79
2024/03/30 10:48:15;;;;;;;14.30;2.58;;;;;;;16.23;61.74;98506.00;10306644;28;20057;-81
2024/03/30 10:53:16;;;;;;;14.73;2.63;;;;;;;16.27;61.12;98499.19;10299626;28;20502;-78
2024/03/30 10:58:17;;;;;;;14.95;2.88;;;;;;;16.07;60.42;98492.88;10300449;28;20112;-80
2024/03/30 11:03:19;;;;;;;12.25;2.67;;;;;;;16.33;60.73;98482.09;10308269;28;20043;-80
2024/03/30 11:08:21;;;;;;;16.67;2.72;;;;;;;17.16;60.30;98483.50;10324381;28;20050;-80
2024/03/30 11:13:22;;;;;;;15.07;2.90;;;;;;;17.85;55.43;98487.38;10319260;28;20051;-79
2024/03/30 11:18:49;;;;;;;14.02;2.88;;;;;;;17.59;54.08;98504.63;10313611;28;20074;-81
2024/03/30 11:23:57;;;;;;;20.65;4.65;;;;;;;17.49;54.90;98499.66;10310279;28;20053;-81
2024/03/30 11:29:07;;;;;;;21.70;3.60;;;;;;;17.96;56.35;98513.00;10311871;28;20038;-80
2024/03/30 11:34:32;;;;;;;15.05;2.47;;;;;;;18.17;56.34;98518.13;10328693;28;20046;-81
2024/03/30 11:39:54;;;;;;;19.83;4.15;;;;;;;17.77;54.03;98523.78;10309450;28;20053;-80
2024/03/30 11:44:56;;;;;;;25.20;3.13;;;;;;;17.77;55.15;98514.78;10304302;28;20061;-79
2024/03/30 11:49:57;;;;;;;13.75;3.28;;;;;;;17.79;54.88;98510.78;10319703;28;20042;-81
2024/03/30 11:54:57;;;;;;;16.67;3.17;;;;;;;17.84;54.63;98510.16;10336109;28;20030;-81
2024/03/30 11:59:58;;;;;;;16.67;3.75;;;;;;;17.90;54.67;98512.81;10288969;28;20046;-82
2024/03/30 12:05:03;;;;;;;21.88;3.25;;;;;;;17.50;55.14;98506.75;10321412;28;20053;-81
2024/03/30 12:10:04;;;;;;;28.05;3.60;;;;;;;17.48;55.53;98503.41;10323162;28;20038;-80
2024/03/30 12:15:14;;;;;;;20.52;4.13;;;;;;;17.35;55.99;98507.00;10303200;28;20035;-80
2024/03/30 12:20:16;;;;;;;30.17;3.55;;;;;;;17.14;56.91;98510.00;10301539;28;20055;-80
2024/03/30 12:25:18;;;;;;;25.50;4.53;;;;;;;16.88;57.65;98511.69;10324580;28;20042;-81
2024/03/30 12:30:20;;;;;;;26.83;4.70;;;;;;;16.73;58.12;98506.50;10327663;28;20042;-81
2024/03/30 12:35:23;;;;;;;30.30;6.37;;;;;;;16.75;58.93;98507.09;10322028;28;20509;-80
2024/03/30 12:40:29;;;;;;;29.88;4.97;;;;;;;16.83;58.51;98499.81;10307564;28;20062;-80
2024/03/30 12:45:30;;;;;;;21.23;4.63;;;;;;;17.35;57.94;98508.91;10307265;28;20050;-81
2024/03/30 12:50:31;;;;;;;26.50;4.40;;;;;;;17.66;56.32;98500.84;10306620;28;20747;-81
2024/03/30 12:55:31;;;;;;;20.70;5.78;;;;;;;17.69;55.68;98503.13;10300032;28;20059;-81
2024/03/30 13:00:32;;;;;;;25.73;4.78;;;;;;;17.28;57.26;98498.06;10309552;28;20050;-79
2024/03/30 13:05:33;;;;;;;23.33;4.05;;;;;;;17.10;57.76;98487.03;10294043;28;20078;-80
2024/03/30 13:10:40;;;;;;;23.48;3.45;;;;;;;16.84;58.85;98494.19;10319762;28;20184;-80
2024/03/30 13:15:41;;;;;;;22.83;3.90;;;;;;;16.73;59.13;98483.94;10300977;28;20126;-82
2024/03/30 13:20:42;;;;;;;31.30;4.35;;;;;;;16.62;60.06;98485.44;10293343;28;20149;-80
2024/03/30 13:25:43;;;;;;;28.70;4.60;;;;;;;16.51;60.22;98494.19;10295888;28;20042;-80
2024/03/30 13:30:46;;;;;;;24.73;5.17;;;;;;;16.41;60.62;98477.53;10322410;28;23111;-80
2024/03/30 13:35:47;;;;;;;22.25;3.35;;;;;;;16.45;61.35;98479.59;10299341;28;20286;-79
2024/03/30 13:40:48;;;;;;;16.33;3.22;;;;;;;16.40;61.54;98484.84;10314655;28;20061;-81
2024/03/30 13:45:54;;;;;;;21.25;4.13;;;;;;;16.35;61.72;98490.88;10288554;28;20058;-80
2024/03/30 13:50:57;;;;;;;22.90;3.80;;;;;;;16.19;61.68;98491.22;10303839;28;20065;-78
2024/03/30 13:55:57;;;;;;;25.92;4.50;;;;;;;16.22;62.33;98492.69;10295471;28;20050;-81
2024/03/30 14:00:58;;;;;;;25.70;3.85;;;;;;;16.15;63.19;98498.94;10322745;28;20097;-81
2024/03/30 14:06:02;;;;;;;22.55;3.80;;;;;;;16.04;63.94;98491.41;10288536;28;20470;-81
2024/03/30 14:11:02;;;;;;;22.17;4.05;;;;;;;16.01;64.04;98491.00;10292525;28;20038;-81
2024/03/30 14:16:03;;;;;;;23.05;4.40;;;;;;;15.98;64.35;98502.22;10326361;28;20046;-79
2024/03/30 14:21:04;;;;;;;20.23;3.92;;;;;;;15.98;63.73;98508.47;10302850;28;20050;-80
2024/03/30 14:26:05;;;;;;;27.27;4.18;;;;;;;16.09;62.93;98510.56;10307350;28;20054;-81
2024/03/30 14:31:05;;;;;;;26.25;3.72;;;;;;;16.13;62.92;98519.97;10334857;28;20046;-79
2024/03/30 14:36:09;;;;;;;30.98;5.40;;;;;;;16.11;61.81;98515.81;10307320;28;20390;-79
2024/03/30 14:41:10;;;;;;;29.98;4.53;;;;;;;16.26;61.28;98516.47;10326012;28;20049;-79
2024/03/30 14:46:12;;;;;;;27.27;5.18;;;;;;;16.31;61.19;98515.84;10313744;28;20061;-79
2024/03/30 14:51:13;;;;;;;33.30;4.23;;;;;;;16.29;61.68;98520.63;10312035;28;20697;-81
2024/03/30 14:56:15;;;;;;;24.35;4.75;;;;;;;16.26;61.45;98531.88;10301790;28;20049;-81
2024/03/30 15:01:17;;;;;;;27.15;5.55;;;;;;;16.25;61.94;98536.44;10321017;28;20045;-80
2024/03/30 15:06:19;;;;;;;32.15;4.20;;;;;;;16.21;61.81;98534.34;10306205;28;20034;-81
2024/03/30 15:11:22;;;;;;;30.77;4.60;;;;;;;16.20;61.61;98548.94;10324295;28;20057;-82
2024/03/30 15:16:23;;;;;;;27.02;3.92;;;;;;;16.19;62.15;98545.41;10329876;28;20057;-81
2024/03/30 15:21:23;;;;;;;27.77;4.30;;;;;;;16.23;61.82;98543.09;10350014;28;20054;-80
2024/03/30 15:26:24;;;;;;;25.92;4.72;;;;;;;16.25;62.05;98551.88;10321336;28;20057;-80
2024/03/30 15:36:44;;;;;;;30.05;4.72;;;;;;;16.19;61.22;98542.69;10331529;28;20035;-81
2024/03/30 15:41:54;;;;;;;26.48;4.75;;;;;;;16.17;59.66;98554.78;10316757;28;20417;-79
2024/03/30 15:46:55;;;;;;;39.17;5.43;;;;;;;16.16;57.40;98545.81;10306528;28;20042;-81
2024/03/30 15:51:56;;;;;;;41.67;6.05;;;;;;;16.20;56.77;98554.34;10311678;28;20137;-80
2024/03/30 15:56:57;;;;;;;49.47;7.82;;;;;;;16.19;56.02;98561.66;10315430;28;20498;-80
2024/03/30 16:01:57;;;;;;;41.30;5.55;;;;;;;16.09;53.86;98569.31;10316339;28;20061;-82
2024/03/30 16:06:58;;;;;;;43.97;6.55;;;;;;;16.19;52.75;98575.19;10306835;28;20031;-81
2024/03/30 16:12:00;;;;;;;44.45;7.53;;;;;;;16.18;51.92;98576.25;10343615;28;20504;-78
2024/03/30 16:17:04;;;;;;;40.20;6.63;;;;;;;16.05;51.24;98584.34;10330076;28;20118;-79
2024/03/30 16:22:05;;;;;;;37.67;7.38;;;;;;;16.10;50.70;98571.84;10330113;28;20043;-81
2024/03/30 16:27:05;;;;;;;53.47;6.05;;;;;;;16.10;50.44;98579.16;10320366;28;20038;-80
2024/03/30 16:32:06;;;;;;;52.20;6.45;;;;;;;16.07;49.53;98583.09;10310717;28;20058;-81
2024/03/30 16:37:07;;;;;;;51.85;6.78;;;;;;;16.02;49.26;98590.97;10310092;28;20066;-80
2024/03/30 16:42:08;;;;;;;48.70;7.68;;;;;;;15.88;49.31;98602.81;10311350;28;20046;-80
2024/03/30 16:47:08;;;;;;;58.05;7.63;;;;;;;15.87;48.87;98615.47;10329927;28;20038;-81
2024/03/30 16:52:09;;;;;;;42.40;7.50;;;;;;;15.96;48.69;98621.56;10311775;28;20053;-82
2024/03/30 16:57:10;;;;;;;48.67;6.90;;;;;;;15.93;48.84;98628.25;10320052;28;20038;-80
2024/03/30 17:02:11;;;;;;;45.20;7.07;;;;;;;15.87;48.34;98630.91;10308556;28;20054;-80
2024/03/30 17:07:11;;;;;;;46.85;7.32;;;;;;;15.79;48.47;98636.47;10323509;28;20039;-80
2024/03/30 17:12:12;;;;;;;40.28;7.70;;;;;;;15.60;49.12;98638.03;10328403;28;20053;-79
2024/03/30 17:17:13;;;;;;;58.33;8.48;;;;;;;15.61;49.18;98642.44;10325210;28;20532;-81
2024/03/30 17:22:14;;;;;;;64.25;10.70;;;;;;;15.68;48.66;98637.88;10306644;28;20061;-80
2024/03/30 17:27:15;;;;;;;45.47;9.85;;;;;;;15.62;48.00;98646.81;10331857;28;20148;-80
2024/03/30 17:32:15;;;;;;;55.88;8.27;;;;;;;15.53;48.60;98651.53;10305261;28;20743;-81
2024/03/30 17:37:16;;;;;;;42.10;7.20;;;;;;;15.52;49.87;98667.97;10322224;28;20042;-81
2024/03/30 17:42:17;;;;;;;53.00;6.63;;;;;;;15.25;50.34;98665.06;10303080;28;20130;-79
2024/03/30 17:47:18;;;;;;;58.55;8.25;;;;;;;15.10;50.41;98680.53;10308767;28;20054;-80
2024/03/30 17:52:19;;;;;;;40.90;7.20;;;;;;;14.69;52.85;98703.63;10332293;28;20054;-80
2024/03/30 17:57:20;;;;;;;48.60;7.35;;;;;;;14.65;53.80;98705.06;10303938;28;20133;-80
2024/03/30 18:02:20;;;;;;;49.33;7.45;;;;;;;14.64;54.10;98716.03;10329160;28;20045;-80
2024/03/30 18:07:21;;;;;;;40.55;5.75;;;;;;;14.54;54.64;98729.88;10316875;28;20073;-78
2024/03/30 18:12:22;;;;;;;35.10;4.35;;;;;;;14.43;55.27;98741.16;10324949;28;20034;-78
2024/03/30 18:17:23;;;;;;;29.40;4.15;;;;;;;14.09;56.92;98745.25;10310867;28;20124;-80
2024/03/30 18:22:23;;;;;;;46.40;7.47;;;;;;;14.03;56.92;98756.81;10327974;28;20068;-78
2024/03/30 18:27:24;;;;;;;31.77;8.50;;;;;;;14.40;56.25;98761.28;10292293;28;20066;-78
2024/03/30 18:32:25;;;;;;;25.23;6.30;;;;;;;14.26;56.71;98760.25;10308551;28;20046;-82
2024/03/30 18:37:26;;;;;;;21.15;5.88;;;;;;;14.23;56.76;98767.88;10307133;28;20488;-78
2024/03/30 18:42:26;;;;;;;24.15;5.10;;;;;;;14.23;57.04;98778.66;10321170;28;20046;-79
2024/03/30 18:47:27;;;;;;;25.55;3.55;;;;;;;13.78;57.85;98786.75;10328801;28;20039;-77
2024/03/30 18:52:28;;;;;;;18.40;3.08;;;;;;;13.88;57.80;98781.94;10332058;28;20034;-77
2024/03/30 18:57:29;;;;;;;15.50;3.17;;;;;;;13.66;58.41;98790.94;10311675;28;20836;-79
2024/03/30 19:02:31;;;;;;;14.57;3.33;;;;;;;14.03;56.95;98781.94;10329850;28;20114;-79
2024/03/30 19:07:33;;;;;;;15.65;2.70;;;;;;;13.81;57.72;98778.28;10323584;28;20065;-80
2024/03/30 19:12:34;;;;;;;16.27;4.22;;;;;;;13.88;57.75;98776.53;10303502;28;20046;-77
2024/03/30 19:17:35;;;;;;;19.10;4.53;;;;;;;13.74;58.62;98769.25;10349248;28;20034;-77
2024/03/30 19:22:36;;;;;;;20.63;4.68;;;;;;;13.56;59.69;98761.50;10309173;28;20070;-78
2024/03/30 19:27:37;;;;;;;13.07;3.90;;;;;;;13.44;60.35;98762.97;10320150;28;20046;-79
2024/03/30 19:32:37;;;;;;;18.35;6.97;;;;;;;13.37;60.38;98772.81;10321569;28;20067;-78
2024/03/30 19:37:38;;;;;;;21.45;4.60;;;;;;;13.38;60.04;98779.84;10294421;28;20056;-79
2024/03/30 19:42:39;;;;;;;21.42;5.15;;;;;;;13.30;60.04;98771.81;10324810;28;20057;-79
2024/03/30 19:47:40;;;;;;;18.85;5.78;;;;;;;13.18;60.38;98776.78;10304943;28;20046;-79
2024/03/30 19:52:40;;;;;;;18.92;6.25;;;;;;;13.02;61.01;98783.13;10311919;28;20157;-78
2024/03/30 19:57:41;;;;;;;19.40;8.75;;;;;;;12.80;62.18;98782.94;10324138;28;20560;-78
2024/03/30 20:02:45;;;;;;;19.90;6.05;;;;;;;12.81;62.82;98787.31;10324195;28;20505;-80
2024/03/30 20:07:46;;;;;;;12.18;5.38;;;;;;;12.69;63.20;98782.50;10316246;28;20054;-78
2024/03/30 20:12:47;;;;;;;20.45;6.65;;;;;;;12.64;63.32;98779.50;10323887;28;20067;-79
2024/03/30 20:17:48;;;;;;;16.98;6.18;;;;;;;12.53;63.97;98772.66;10330626;28;20549;-80
2024/03/30 20:22:48;;;;;;;23.67;6.57;;;;;;;12.44;64.59;98781.78;10324122;28;20046;-78
2024/03/30 20:27:49;;;;;;;16.13;6.05;;;;;;;12.28;65.62;98767.38;10313851;28;20046;-80
2024/03/30 20:32:50;;;;;;;19.40;6.15;;;;;;;12.25;65.96;98751.53;10302398;28;20046;-79
2024/03/30 20:37:51;;;;;;;13.75;5.30;;;;;;;12.20;66.13;98762.00;10310709;28;20574;-80
2024/03/30 20:42:51;;;;;;;15.27;5.63;;;;;;;12.23;66.37;98776.94;10313800;28;20043;-80
2024/03/30 20:47:52;;;;;;;12.45;4.97;;;;;;;12.10;66.83;98793.66;10319951;28;20053;-80
2024/03/30 20:52:53;;;;;;;17.80;4.47;;;;;;;12.03;67.12;98800.75;10322976;28;20042;-80
2024/03/30 20:57:55;;;;;;;11.82;5.70;;;;;;;12.05;67.36;98807.63;10300169;28;20705;-80
2024/03/30 21:03:00;;;;;;;9.75;5.18;;;;;;;12.12;67.08;98787.09;10302358;28;20053;-80
2024/03/30 21:08:01;;;;;;;11.95;5.40;;;;;;;12.10;67.17;98764.06;10321504;28;20089;-79
2024/03/30 21:13:02;;;;;;;29.10;7.25;;;;;;;12.03;67.78;98781.91;10304275;28;20046;-80
2024/03/30 21:18:03;;;;;;;17.00;6.78;;;;;;;11.95;67.76;98788.97;10306862;28;20034;-78
2024/03/30 21:23:04;;;;;;;13.95;7.30;;;;;;;11.90;68.17;98793.19;10311000;28;20046;-81
2024/03/30 21:28:05;;;;;;;20.13;8.63;;;;;;;11.90;68.18;98780.59;10347803;28;20019;-78
2024/03/30 21:33:06;;;;;;;18.27;7.47;;;;;;;11.79;68.61;98794.41;10331705;28;20458;-80
2024/03/30 21:38:06;;;;;;;17.27;7.70;;;;;;;11.74;69.28;98799.47;10320160;28;20054;-79
2024/03/30 21:43:08;;;;;;;19.25;6.63;;;;;;;11.74;69.34;98802.16;10321576;28;20042;-79
2024/03/30 21:48:09;;;;;;;14.90;6.65;;;;;;;11.73;69.82;98800.47;10316290;28;20101;-80
2024/03/30 21:53:10;;;;;;;20.08;8.75;;;;;;;11.64;69.97;98796.13;10294585;28;20616;-81
2024/03/30 21:58:11;;;;;;;18.73;9.80;;;;;;;11.58;70.40;98788.72;10309468;28;20057;-80
2024/03/30 22:03:12;;;;;;;20.50;9.18;;;;;;;11.53;70.51;98791.91;10301779;28;20046;-78
2024/03/30 22:08:13;;;;;;;17.83;7.50;;;;;;;11.46;70.97;98804.34;10321980;28;20569;-80
2024/03/30 22:13:14;;;;;;;13.05;7.35;;;;;;;11.48;71.12;98823.84;10296821;28;20042;-80
2024/03/30 22:18:15;;;;;;;17.83;8.20;;;;;;;11.60;70.80;98843.16;10312400;28;20536;-79
2024/03/30 22:23:16;;;;;;;17.88;8.15;;;;;;;11.68;70.50;98835.09;10307581;28;20042;-78
2024/03/30 22:28:17;;;;;;;9.85;7.05;;;;;;;11.58;70.50;98831.75;10306654;28;20034;-80
2024/03/30 22:33:17;;;;;;;13.63;7.10;;;;;;;11.33;72.19;98837.13;10304401;28;20043;-80
2024/03/30 22:38:18;;;;;;;12.88;8.30;;;;;;;11.27;72.45;98838.63;10294640;28;20063;-79
2024/03/30 22:43:20;;;;;;;15.80;10.05;;;;;;;11.23;72.58;98864.16;10293350;28;20110;-78
2024/03/30 22:48:21;;;;;;;17.35;10.10;;;;;;;11.03;73.62;98860.91;10311187;28;20046;-79
2024/03/30 22:53:22;;;;;;;16.08;9.43;;;;;;;11.06;73.58;98862.41;10305098;28;20525;-80
2024/03/30 22:58:23;;;;;;;15.70;9.68;;;;;;;11.05;73.43;98850.84;10308848;28;20038;-80
2024/03/30 23:03:28;;;;;;;19.83;8.90;;;;;;;11.10;73.49;98853.00;10322374;28;20768;-79
2024/03/30 23:08:32;;;;;;;17.38;9.52;;;;;;;11.01;73.34;98841.41;10313349;28;20043;-78
2024/03/30 23:13:34;;;;;;;21.98;9.48;;;;;;;10.87;74.16;98817.88;10312135;28;20093;-78
2024/03/30 23:18:38;;;;;;;15.93;10.27;;;;;;;10.83;74.44;98803.94;10338235;28;20047;-80